Strona główna
METAR-TAF:

METAR-TAF

Lotnisko :

Port lotniczy Woensdrecht

Woensdrecht, Holandia

Szerokość geograficzna: 51-27N, Długość geograficzna: 004-20E, wysokość: 20 m

Aktualna obserwacja pogody

Raport powstał 17 minut temu, godzina 08:13 UTC
Wiatr 12 kt od zachód, zmienny między południowy zachód i północny zachód
Temperatura 14°C
Wilgotność 67%
Ciśnienie 1005 hPa
Widzialność 10 km lub więcej
Rozproszone chmury na wysokości 2400 ft
Przerywane chmury na wysokości 4500 ft
Zachmurzenie całkowite na wysokości 5000 ft

METAR: EHWO 070813Z AUTO 28012KT 220V320 9999 SCT024 BKN045 OVC050 14/08 Q1005 WHT

czas: 10:30 (08:30 UTC)


TAF: brakujący

Obserwacja i prognoza pogody dla ponad 4000 lotnisk (raport METAR i TAF).

Dostępne stacje oznaczono żółtymi i czerwonymi punktami na mapie.

Najedź kursorem aby zobaczyć nazwę stacji.

Kliknij aby zobaczyć obserwacje i prognozy pogody.

Aby zmienić mapę: kliknij na zielony przycisk z czarnym krzyżykiem, aby powiększyć; na zielony przycisk z myślnikiem, aby pomniejszyć; na zielone strzałki, aby przejść do map sąsiednich.


METAR-TAF: